sensor_id;sensor_type;location;lat;lon;timestamp;P1;durP1;ratioP1;P2;durP2;ratioP2
3487;SDS011;38546;48.170;11.724;2023-03-22T00:02:18;8.13;;;6.50;;
3487;SDS011;38546;48.170;11.724;2023-03-22T00:05:08;9.13;;;6.33;;
3487;SDS011;38546;48.170;11.724;2023-03-22T00:07:57;7.87;;;6.50;;
3487;SDS011;38546;48.170;11.724;2023-03-22T00:10:47;9.07;;;7.10;;
3487;SDS011;38546;48.170;11.724;2023-03-22T00:13:36;8.13;;;6.30;;
3487;SDS011;38546;48.170;11.724;2023-03-22T00:16:25;12.20;;;6.87;;
3487;SDS011;38546;48.170;11.724;2023-03-22T00:19:15;7.10;;;6.40;;
3487;SDS011;38546;48.170;11.724;2023-03-22T00:22:05;12.60;;;6.63;;
3487;SDS011;38546;48.170;11.724;2023-03-22T00:24:54;9.70;;;7.17;;
3487;SDS011;38546;48.170;11.724;2023-03-22T00:27:43;8.30;;;6.37;;
3487;SDS011;38546;48.170;11.724;2023-03-22T00:30:32;10.77;;;7.63;;
3487;SDS011;38546;48.170;11.724;2023-03-22T00:33:21;9.57;;;6.80;;
3487;SDS011;38546;48.170;11.724;2023-03-22T00:36:11;10.07;;;7.40;;
3487;SDS011;38546;48.170;11.724;2023-03-22T00:39:00;8.47;;;6.43;;
3487;SDS011;38546;48.170;11.724;2023-03-22T00:41:50;8.57;;;6.53;;
3487;SDS011;38546;48.170;11.724;2023-03-22T00:44:39;12.20;;;7.50;;
3487;SDS011;38546;48.170;11.724;2023-03-22T00:47:29;11.90;;;7.77;;
3487;SDS011;38546;48.170;11.724;2023-03-22T00:50:18;10.60;;;6.40;;
3487;SDS011;38546;48.170;11.724;2023-03-22T00:53:07;8.30;;;7.50;;
3487;SDS011;38546;48.170;11.724;2023-03-22T00:55:57;13.63;;;7.47;;
3487;SDS011;38546;48.170;11.724;2023-03-22T00:58:47;8.80;;;6.20;;
3487;SDS011;38546;48.170;11.724;2023-03-22T01:01:37;11.03;;;7.70;;
3487;SDS011;38546;48.170;11.724;2023-03-22T01:04:27;11.20;;;7.30;;
3487;SDS011;38546;48.170;11.724;2023-03-22T01:07:16;13.20;;;7.73;;
3487;SDS011;38546;48.170;11.724;2023-03-22T01:10:06;11.30;;;7.43;;
3487;SDS011;38546;48.170;11.724;2023-03-22T01:12:56;10.20;;;6.90;;
3487;SDS011;38546;48.170;11.724;2023-03-22T01:15:48;11.90;;;6.80;;
3487;SDS011;38546;48.170;11.724;2023-03-22T01:18:38;10.70;;;6.37;;
3487;SDS011;38546;48.170;11.724;2023-03-22T01:21:28;7.27;;;6.43;;
3487;SDS011;38546;48.170;11.724;2023-03-22T01:24:17;10.10;;;7.17;;
3487;SDS011;38546;48.170;11.724;2023-03-22T01:27:07;9.63;;;7.00;;
3487;SDS011;38546;48.170;11.724;2023-03-22T01:29:56;10.30;;;7.10;;
3487;SDS011;38546;48.170;11.724;2023-03-22T01:32:45;10.50;;;6.87;;
3487;SDS011;38546;48.170;11.724;2023-03-22T01:35:34;8.33;;;6.10;;
3487;SDS011;38546;48.170;11.724;2023-03-22T01:38:24;8.30;;;6.10;;
3487;SDS011;38546;48.170;11.724;2023-03-22T01:41:14;8.70;;;6.57;;
3487;SDS011;38546;48.170;11.724;2023-03-22T01:44:12;9.30;;;6.80;;
3487;SDS011;38546;48.170;11.724;2023-03-22T01:47:07;8.07;;;7.03;;
3487;SDS011;38546;48.170;11.724;2023-03-22T01:49:58;9.77;;;6.37;;
3487;SDS011;38546;48.170;11.724;2023-03-22T01:52:48;8.47;;;6.30;;
3487;SDS011;38546;48.170;11.724;2023-03-22T01:55:40;10.00;;;7.87;;
3487;SDS011;38546;48.170;11.724;2023-03-22T01:58:30;8.53;;;6.60;;
3487;SDS011;38546;48.170;11.724;2023-03-22T02:01:21;8.57;;;6.77;;
3487;SDS011;38546;48.170;11.724;2023-03-22T02:04:16;8.93;;;6.63;;
3487;SDS011;38546;48.170;11.724;2023-03-22T02:07:09;10.10;;;6.70;;
3487;SDS011;38546;48.170;11.724;2023-03-22T02:10:05;9.40;;;6.03;;
3487;SDS011;38546;48.170;11.724;2023-03-22T02:27:51;6.97;;;5.70;;
3487;SDS011;38546;48.170;11.724;2023-03-22T02:36:18;6.57;;;5.80;;
3487;SDS011;38546;48.170;11.724;2023-03-22T02:40:01;8.67;;;6.10;;
3487;SDS011;38546;48.170;11.724;2023-03-22T02:44:15;6.43;;;5.63;;
3487;SDS011;38546;48.170;11.724;2023-03-22T02:48:04;8.53;;;6.33;;
3487;SDS011;38546;48.170;11.724;2023-03-22T02:51:20;8.00;;;6.00;;
3487;SDS011;38546;48.170;11.724;2023-03-22T02:54:34;9.03;;;6.17;;
3487;SDS011;38546;48.170;11.724;2023-03-22T02:58:16;9.90;;;6.90;;
3487;SDS011;38546;48.170;11.724;2023-03-22T03:01:29;8.73;;;6.00;;
3487;SDS011;38546;48.170;11.724;2023-03-22T03:04:27;8.10;;;6.47;;
3487;SDS011;38546;48.170;11.724;2023-03-22T03:07:21;7.03;;;6.30;;
3487;SDS011;38546;48.170;11.724;2023-03-22T03:10:15;8.97;;;7.23;;
3487;SDS011;38546;48.170;11.724;2023-03-22T03:13:10;7.47;;;5.80;;
3487;SDS011;38546;48.170;11.724;2023-03-22T03:16:04;8.33;;;6.30;;
3487;SDS011;38546;48.170;11.724;2023-03-22T03:18:59;7.03;;;6.20;;
3487;SDS011;38546;48.170;11.724;2023-03-22T03:22:16;9.80;;;6.43;;
3487;SDS011;38546;48.170;11.724;2023-03-22T03:32:18;9.37;;;6.23;;
3487;SDS011;38546;48.170;11.724;2023-03-22T03:35:19;8.57;;;7.07;;
3487;SDS011;38546;48.170;11.724;2023-03-22T03:38:24;8.40;;;5.77;;
3487;SDS011;38546;48.170;11.724;2023-03-22T03:41:19;6.73;;;5.80;;
3487;SDS011;38546;48.170;11.724;2023-03-22T03:44:12;10.37;;;6.90;;
3487;SDS011;38546;48.170;11.724;2023-03-22T03:47:04;8.20;;;5.80;;
3487;SDS011;38546;48.170;11.724;2023-03-22T03:49:56;7.83;;;6.67;;
3487;SDS011;38546;48.170;11.724;2023-03-22T03:52:45;9.93;;;6.50;;
3487;SDS011;38546;48.170;11.724;2023-03-22T03:55:35;8.70;;;6.70;;
3487;SDS011;38546;48.170;11.724;2023-03-22T03:58:25;7.70;;;6.23;;
3487;SDS011;38546;48.170;11.724;2023-03-22T04:01:14;8.37;;;6.33;;
3487;SDS011;38546;48.170;11.724;2023-03-22T04:04:06;8.30;;;6.33;;
3487;SDS011;38546;48.170;11.724;2023-03-22T04:06:57;8.77;;;5.80;;
3487;SDS011;38546;48.170;11.724;2023-03-22T04:09:48;9.67;;;5.73;;
3487;SDS011;38546;48.170;11.724;2023-03-22T04:12:37;8.50;;;6.50;;
3487;SDS011;38546;48.170;11.724;2023-03-22T04:15:26;9.97;;;6.70;;
3487;SDS011;38546;48.170;11.724;2023-03-22T04:18:15;8.47;;;6.70;;
3487;SDS011;38546;48.170;11.724;2023-03-22T04:21:05;8.67;;;6.30;;
3487;SDS011;38546;48.170;11.724;2023-03-22T04:23:55;8.50;;;6.20;;
3487;SDS011;38546;48.170;11.724;2023-03-22T04:26:44;8.10;;;6.13;;
3487;SDS011;38546;48.170;11.724;2023-03-22T04:29:33;6.37;;;5.77;;
3487;SDS011;38546;48.170;11.724;2023-03-22T04:32:24;8.50;;;6.03;;
3487;SDS011;38546;48.170;11.724;2023-03-22T04:35:13;9.20;;;6.27;;
3487;SDS011;38546;48.170;11.724;2023-03-22T04:38:03;7.87;;;6.10;;
3487;SDS011;38546;48.170;11.724;2023-03-22T04:40:52;11.17;;;6.13;;
3487;SDS011;38546;48.170;11.724;2023-03-22T04:43:43;8.50;;;5.70;;
3487;SDS011;38546;48.170;11.724;2023-03-22T04:46:34;7.23;;;4.90;;
3487;SDS011;38546;48.170;11.724;2023-03-22T04:49:25;5.80;;;5.10;;
3487;SDS011;38546;48.170;11.724;2023-03-22T04:52:14;6.70;;;4.80;;
3487;SDS011;38546;48.170;11.724;2023-03-22T04:55:04;7.97;;;5.20;;
3487;SDS011;38546;48.170;11.724;2023-03-22T04:57:54;7.17;;;4.97;;
3487;SDS011;38546;48.170;11.724;2023-03-22T05:00:43;4.90;;;4.50;;
3487;SDS011;38546;48.170;11.724;2023-03-22T05:03:32;6.70;;;4.87;;
3487;SDS011;38546;48.170;11.724;2023-03-22T05:06:22;5.43;;;4.87;;
3487;SDS011;38546;48.170;11.724;2023-03-22T05:09:12;7.37;;;5.00;;
3487;SDS011;38546;48.170;11.724;2023-03-22T05:12:01;5.70;;;4.43;;
3487;SDS011;38546;48.170;11.724;2023-03-22T05:14:50;5.87;;;4.60;;
3487;SDS011;38546;48.170;11.724;2023-03-22T05:17:39;5.70;;;4.43;;
3487;SDS011;38546;48.170;11.724;2023-03-22T05:20:29;4.90;;;4.37;;
3487;SDS011;38546;48.170;11.724;2023-03-22T05:23:19;5.37;;;4.27;;
3487;SDS011;38546;48.170;11.724;2023-03-22T05:26:09;5.53;;;4.13;;
3487;SDS011;38546;48.170;11.724;2023-03-22T05:29:03;3.90;;;3.60;;
3487;SDS011;38546;48.170;11.724;2023-03-22T05:31:53;4.80;;;4.40;;
3487;SDS011;38546;48.170;11.724;2023-03-22T05:34:42;4.67;;;4.00;;
3487;SDS011;38546;48.170;11.724;2023-03-22T05:37:33;4.07;;;3.77;;
3487;SDS011;38546;48.170;11.724;2023-03-22T05:40:22;3.73;;;3.43;;
3487;SDS011;38546;48.170;11.724;2023-03-22T05:43:12;4.00;;;3.70;;
3487;SDS011;38546;48.170;11.724;2023-03-22T05:46:05;3.77;;;3.37;;
3487;SDS011;38546;48.170;11.724;2023-03-22T05:48:56;4.67;;;4.00;;
3487;SDS011;38546;48.170;11.724;2023-03-22T05:51:45;7.90;;;4.03;;
3487;SDS011;38546;48.170;11.724;2023-03-22T05:54:34;4.30;;;3.47;;
3487;SDS011;38546;48.170;11.724;2023-03-22T05:57:23;4.40;;;3.70;;
3487;SDS011;38546;48.170;11.724;2023-03-22T06:00:13;3.90;;;3.50;;
3487;SDS011;38546;48.170;11.724;2023-03-22T06:03:04;4.93;;;4.50;;
3487;SDS011;38546;48.170;11.724;2023-03-22T06:05:53;12.97;;;4.03;;
3487;SDS011;38546;48.170;11.724;2023-03-22T06:08:42;5.23;;;4.73;;
3487;SDS011;38546;48.170;11.724;2023-03-22T06:11:32;6.10;;;4.20;;
3487;SDS011;38546;48.170;11.724;2023-03-22T06:14:23;5.03;;;4.57;;
3487;SDS011;38546;48.170;11.724;2023-03-22T06:17:12;4.30;;;3.83;;
3487;SDS011;38546;48.170;11.724;2023-03-22T06:20:01;4.13;;;3.73;;
3487;SDS011;38546;48.170;11.724;2023-03-22T06:22:56;3.80;;;3.50;;
3487;SDS011;38546;48.170;11.724;2023-03-22T06:25:45;4.13;;;3.73;;
3487;SDS011;38546;48.170;11.724;2023-03-22T06:28:34;3.53;;;3.33;;
3487;SDS011;38546;48.170;11.724;2023-03-22T06:31:23;4.43;;;4.03;;
3487;SDS011;38546;48.170;11.724;2023-03-22T06:34:12;6.80;;;3.50;;
3487;SDS011;38546;48.170;11.724;2023-03-22T06:37:01;5.07;;;3.73;;
3487;SDS011;38546;48.170;11.724;2023-03-22T06:39:50;3.87;;;3.57;;
3487;SDS011;38546;48.170;11.724;2023-03-22T06:42:40;4.07;;;3.67;;
3487;SDS011;38546;48.170;11.724;2023-03-22T06:45:28;4.50;;;3.97;;
3487;SDS011;38546;48.170;11.724;2023-03-22T06:48:20;4.50;;;3.70;;
3487;SDS011;38546;48.170;11.724;2023-03-22T06:51:09;4.90;;;4.27;;
3487;SDS011;38546;48.170;11.724;2023-03-22T06:53:58;3.40;;;3.10;;
3487;SDS011;38546;48.170;11.724;2023-03-22T06:56:48;3.77;;;3.47;;
3487;SDS011;38546;48.170;11.724;2023-03-22T06:59:37;4.30;;;3.90;;
3487;SDS011;38546;48.170;11.724;2023-03-22T07:02:26;6.60;;;3.83;;
3487;SDS011;38546;48.170;11.724;2023-03-22T07:05:15;3.60;;;3.27;;
3487;SDS011;38546;48.170;11.724;2023-03-22T07:08:04;2.90;;;2.70;;
3487;SDS011;38546;48.170;11.724;2023-03-22T07:10:54;8.60;;;3.50;;
3487;SDS011;38546;48.170;11.724;2023-03-22T07:13:43;4.73;;;3.30;;
3487;SDS011;38546;48.170;11.724;2023-03-22T07:16:32;3.40;;;3.13;;
3487;SDS011;38546;48.170;11.724;2023-03-22T07:19:21;5.00;;;4.03;;
3487;SDS011;38546;48.170;11.724;2023-03-22T07:22:10;4.00;;;3.60;;
3487;SDS011;38546;48.170;11.724;2023-03-22T07:24:59;3.23;;;2.77;;
3487;SDS011;38546;48.170;11.724;2023-03-22T07:27:48;3.57;;;3.27;;
3487;SDS011;38546;48.170;11.724;2023-03-22T07:30:38;8.77;;;3.33;;
3487;SDS011;38546;48.170;11.724;2023-03-22T07:33:28;4.60;;;4.20;;
3487;SDS011;38546;48.170;11.724;2023-03-22T07:36:17;4.73;;;4.23;;
3487;SDS011;38546;48.170;11.724;2023-03-22T07:39:11;3.53;;;2.97;;
3487;SDS011;38546;48.170;11.724;2023-03-22T07:42:00;4.40;;;4.07;;
3487;SDS011;38546;48.170;11.724;2023-03-22T07:44:49;5.00;;;3.67;;
3487;SDS011;38546;48.170;11.724;2023-03-22T07:47:38;4.53;;;4.03;;
3487;SDS011;38546;48.170;11.724;2023-03-22T07:50:27;8.37;;;3.97;;
3487;SDS011;38546;48.170;11.724;2023-03-22T07:53:16;4.00;;;3.67;;
3487;SDS011;38546;48.170;11.724;2023-03-22T07:56:06;4.37;;;3.70;;
3487;SDS011;38546;48.170;11.724;2023-03-22T07:58:56;5.50;;;3.70;;
3487;SDS011;38546;48.170;11.724;2023-03-22T08:01:44;3.50;;;3.20;;
3487;SDS011;38546;48.170;11.724;2023-03-22T08:04:34;4.93;;;3.73;;
3487;SDS011;38546;48.170;11.724;2023-03-22T08:07:23;8.63;;;4.57;;
3487;SDS011;38546;48.170;11.724;2023-03-22T08:10:12;7.17;;;4.27;;
3487;SDS011;38546;48.170;11.724;2023-03-22T08:13:03;4.13;;;3.73;;
3487;SDS011;38546;48.170;11.724;2023-03-22T08:15:52;8.03;;;4.27;;
3487;SDS011;38546;48.170;11.724;2023-03-22T08:18:41;5.47;;;3.70;;
3487;SDS011;38546;48.170;11.724;2023-03-22T08:21:29;7.67;;;4.60;;
3487;SDS011;38546;48.170;11.724;2023-03-22T08:24:19;4.70;;;4.20;;
3487;SDS011;38546;48.170;11.724;2023-03-22T08:27:08;4.70;;;4.30;;
3487;SDS011;38546;48.170;11.724;2023-03-22T08:29:58;5.97;;;4.40;;
3487;SDS011;38546;48.170;11.724;2023-03-22T08:32:48;4.37;;;4.00;;
3487;SDS011;38546;48.170;11.724;2023-03-22T08:35:37;7.20;;;4.60;;
3487;SDS011;38546;48.170;11.724;2023-03-22T08:38:27;6.67;;;5.30;;
3487;SDS011;38546;48.170;11.724;2023-03-22T08:41:16;5.83;;;4.43;;
3487;SDS011;38546;48.170;11.724;2023-03-22T08:44:06;6.80;;;4.20;;
3487;SDS011;38546;48.170;11.724;2023-03-22T08:46:55;6.93;;;5.00;;
3487;SDS011;38546;48.170;11.724;2023-03-22T08:49:44;5.73;;;5.13;;
3487;SDS011;38546;48.170;11.724;2023-03-22T08:52:33;6.20;;;4.60;;
3487;SDS011;38546;48.170;11.724;2023-03-22T08:55:22;6.83;;;5.40;;
3487;SDS011;38546;48.170;11.724;2023-03-22T08:58:12;10.97;;;6.07;;
3487;SDS011;38546;48.170;11.724;2023-03-22T09:01:04;7.00;;;5.37;;
3487;SDS011;38546;48.170;11.724;2023-03-22T09:03:53;5.37;;;4.63;;
3487;SDS011;38546;48.170;11.724;2023-03-22T09:06:42;10.60;;;5.90;;
3487;SDS011;38546;48.170;11.724;2023-03-22T09:09:32;8.90;;;5.17;;
3487;SDS011;38546;48.170;11.724;2023-03-22T09:12:21;6.30;;;5.70;;
3487;SDS011;38546;48.170;11.724;2023-03-22T09:15:10;9.60;;;7.53;;
3487;SDS011;38546;48.170;11.724;2023-03-22T09:17:59;9.90;;;7.20;;
3487;SDS011;38546;48.170;11.724;2023-03-22T09:20:49;9.07;;;6.90;;
3487;SDS011;38546;48.170;11.724;2023-03-22T09:23:38;10.87;;;7.17;;
3487;SDS011;38546;48.170;11.724;2023-03-22T09:26:29;10.90;;;7.00;;
3487;SDS011;38546;48.170;11.724;2023-03-22T09:29:18;10.17;;;7.27;;
3487;SDS011;38546;48.170;11.724;2023-03-22T09:32:08;11.53;;;7.77;;
3487;SDS011;38546;48.170;11.724;2023-03-22T09:34:57;10.03;;;6.80;;
3487;SDS011;38546;48.170;11.724;2023-03-22T09:37:46;9.53;;;6.97;;
3487;SDS011;38546;48.170;11.724;2023-03-22T09:40:38;10.23;;;7.70;;
3487;SDS011;38546;48.170;11.724;2023-03-22T09:43:41;8.40;;;6.37;;
3487;SDS011;38546;48.170;11.724;2023-03-22T09:46:38;6.17;;;5.53;;
3487;SDS011;38546;48.170;11.724;2023-03-22T09:49:35;6.73;;;6.03;;
3487;SDS011;38546;48.170;11.724;2023-03-22T09:52:28;7.63;;;5.53;;
3487;SDS011;38546;48.170;11.724;2023-03-22T09:55:22;6.03;;;4.77;;
3487;SDS011;38546;48.170;11.724;2023-03-22T09:58:46;9.43;;;5.80;;
3487;SDS011;38546;48.170;11.724;2023-03-22T10:01:52;6.67;;;5.90;;
3487;SDS011;38546;48.170;11.724;2023-03-22T10:05:03;11.30;;;6.10;;
3487;SDS011;38546;48.170;11.724;2023-03-22T10:08:40;6.67;;;5.30;;
3487;SDS011;38546;48.170;11.724;2023-03-22T10:12:14;10.33;;;6.07;;
3487;SDS011;38546;48.170;11.724;2023-03-22T10:16:02;4.47;;;4.10;;
3487;SDS011;38546;48.170;11.724;2023-03-22T10:19:15;9.93;;;4.53;;
3487;SDS011;38546;48.170;11.724;2023-03-22T10:22:16;5.77;;;4.20;;
3487;SDS011;38546;48.170;11.724;2023-03-22T10:25:15;7.80;;;4.10;;
3487;SDS011;38546;48.170;11.724;2023-03-22T10:28:15;5.60;;;4.60;;
3487;SDS011;38546;48.170;11.724;2023-03-22T10:31:12;4.73;;;4.30;;
3487;SDS011;38546;48.170;11.724;2023-03-22T10:34:22;4.30;;;3.90;;
3487;SDS011;38546;48.170;11.724;2023-03-22T10:37:17;4.60;;;4.20;;
3487;SDS011;38546;48.170;11.724;2023-03-22T10:40:19;7.50;;;4.73;;
3487;SDS011;38546;48.170;11.724;2023-03-22T10:43:16;4.50;;;3.90;;
3487;SDS011;38546;48.170;11.724;2023-03-22T10:46:24;4.13;;;3.60;;
3487;SDS011;38546;48.170;11.724;2023-03-22T10:49:31;4.97;;;3.83;;
3487;SDS011;38546;48.170;11.724;2023-03-22T10:52:33;4.50;;;4.10;;
3487;SDS011;38546;48.170;11.724;2023-03-22T10:55:39;4.60;;;4.10;;
3487;SDS011;38546;48.170;11.724;2023-03-22T10:58:31;5.43;;;4.53;;
3487;SDS011;38546;48.170;11.724;2023-03-22T11:01:33;4.73;;;4.33;;
3487;SDS011;38546;48.170;11.724;2023-03-22T11:04:27;8.97;;;4.90;;
3487;SDS011;38546;48.170;11.724;2023-03-22T11:07:27;7.20;;;4.70;;
3487;SDS011;38546;48.170;11.724;2023-03-22T11:13:37;4.90;;;3.10;;
3487;SDS011;38546;48.170;11.724;2023-03-22T11:16:27;4.57;;;3.73;;
3487;SDS011;38546;48.170;11.724;2023-03-22T11:19:23;4.40;;;3.43;;
3487;SDS011;38546;48.170;11.724;2023-03-22T11:22:49;3.57;;;3.00;;
3487;SDS011;38546;48.170;11.724;2023-03-22T11:25:45;3.57;;;3.37;;
3487;SDS011;38546;48.170;11.724;2023-03-22T11:28:48;3.30;;;2.60;;
3487;SDS011;38546;48.170;11.724;2023-03-22T11:31:49;3.20;;;2.90;;
3487;SDS011;38546;48.170;11.724;2023-03-22T11:34:42;6.60;;;3.07;;
3487;SDS011;38546;48.170;11.724;2023-03-22T11:37:33;2.93;;;2.83;;
3487;SDS011;38546;48.170;11.724;2023-03-22T11:40:38;4.47;;;3.00;;
3487;SDS011;38546;48.170;11.724;2023-03-22T11:43:42;3.37;;;2.80;;
3487;SDS011;38546;48.170;11.724;2023-03-22T11:46:39;3.37;;;3.17;;
3487;SDS011;38546;48.170;11.724;2023-03-22T11:49:46;2.70;;;2.50;;
3487;SDS011;38546;48.170;11.724;2023-03-22T11:52:38;3.10;;;2.90;;
3487;SDS011;38546;48.170;11.724;2023-03-22T11:55:34;3.33;;;2.90;;
3487;SDS011;38546;48.170;11.724;2023-03-22T11:59:08;11.03;;;2.63;;
3487;SDS011;38546;48.170;11.724;2023-03-22T12:06:59;3.77;;;3.10;;
3487;SDS011;38546;48.170;11.724;2023-03-22T12:29:38;3.80;;;3.50;;
3487;SDS011;38546;48.170;11.724;2023-03-22T12:32:44;4.77;;;3.67;;
3487;SDS011;38546;48.170;11.724;2023-03-22T12:35:50;3.20;;;3.00;;
3487;SDS011;38546;48.170;11.724;2023-03-22T12:38:52;2.47;;;2.37;;
3487;SDS011;38546;48.170;11.724;2023-03-22T12:41:49;3.97;;;3.37;;
3487;SDS011;38546;48.170;11.724;2023-03-22T12:44:43;3.53;;;3.20;;
3487;SDS011;38546;48.170;11.724;2023-03-22T12:47:37;2.83;;;2.63;;
3487;SDS011;38546;48.170;11.724;2023-03-22T12:50:47;3.57;;;2.67;;
3487;SDS011;38546;48.170;11.724;2023-03-22T12:53:52;2.97;;;2.70;;
3487;SDS011;38546;48.170;11.724;2023-03-22T12:56:45;4.07;;;2.60;;
3487;SDS011;38546;48.170;11.724;2023-03-22T12:59:35;3.27;;;2.80;;
3487;SDS011;38546;48.170;11.724;2023-03-22T13:02:26;2.60;;;2.50;;
3487;SDS011;38546;48.170;11.724;2023-03-22T13:05:21;3.43;;;3.20;;
3487;SDS011;38546;48.170;11.724;2023-03-22T13:08:19;2.37;;;2.17;;
3487;SDS011;38546;48.170;11.724;2023-03-22T13:11:20;4.43;;;2.83;;
3487;SDS011;38546;48.170;11.724;2023-03-22T13:14:12;3.47;;;2.90;;
3487;SDS011;38546;48.170;11.724;2023-03-22T13:17:46;3.23;;;2.93;;
3487;SDS011;38546;48.170;11.724;2023-03-22T13:20:35;3.50;;;3.20;;
3487;SDS011;38546;48.170;11.724;2023-03-22T13:23:28;2.90;;;2.70;;
3487;SDS011;38546;48.170;11.724;2023-03-22T13:26:17;3.57;;;3.27;;
3487;SDS011;38546;48.170;11.724;2023-03-22T13:38:56;3.17;;;2.87;;
3487;SDS011;38546;48.170;11.724;2023-03-22T13:41:47;2.83;;;2.30;;
3487;SDS011;38546;48.170;11.724;2023-03-22T13:44:53;2.40;;;2.20;;
3487;SDS011;38546;48.170;11.724;2023-03-22T13:47:50;7.33;;;3.30;;
3487;SDS011;38546;48.170;11.724;2023-03-22T13:54:41;3.67;;;3.37;;
3487;SDS011;38546;48.170;11.724;2023-03-22T13:57:37;8.30;;;3.57;;
3487;SDS011;38546;48.170;11.724;2023-03-22T14:00:37;6.50;;;3.60;;
3487;SDS011;38546;48.170;11.724;2023-03-22T14:03:34;3.03;;;2.83;;
3487;SDS011;38546;48.170;11.724;2023-03-22T14:06:27;5.10;;;2.80;;
3487;SDS011;38546;48.170;11.724;2023-03-22T14:09:23;2.03;;;1.90;;
3487;SDS011;38546;48.170;11.724;2023-03-22T14:12:23;1.70;;;1.60;;
3487;SDS011;38546;48.170;11.724;2023-03-22T14:15:37;2.03;;;1.93;;
3487;SDS011;38546;48.170;11.724;2023-03-22T14:18:32;2.47;;;2.20;;
3487;SDS011;38546;48.170;11.724;2023-03-22T14:21:36;2.20;;;2.10;;
3487;SDS011;38546;48.170;11.724;2023-03-22T14:24:31;2.07;;;1.90;;
3487;SDS011;38546;48.170;11.724;2023-03-22T14:27:22;2.10;;;2.00;;
3487;SDS011;38546;48.170;11.724;2023-03-22T14:30:26;2.47;;;1.93;;
3487;SDS011;38546;48.170;11.724;2023-03-22T14:33:26;1.77;;;1.67;;
3487;SDS011;38546;48.170;11.724;2023-03-22T14:36:19;2.37;;;2.17;;
3487;SDS011;38546;48.170;11.724;2023-03-22T14:39:22;1.87;;;1.77;;
3487;SDS011;38546;48.170;11.724;2023-03-22T14:42:25;5.17;;;2.07;;
3487;SDS011;38546;48.170;11.724;2023-03-22T14:45:19;1.93;;;1.80;;
3487;SDS011;38546;48.170;11.724;2023-03-22T14:48:12;2.47;;;1.83;;
3487;SDS011;38546;48.170;11.724;2023-03-22T14:51:11;1.80;;;1.70;;
3487;SDS011;38546;48.170;11.724;2023-03-22T14:54:09;3.83;;;2.00;;
3487;SDS011;38546;48.170;11.724;2023-03-22T14:57:05;2.30;;;2.10;;
3487;SDS011;38546;48.170;11.724;2023-03-22T14:59:55;2.40;;;1.80;;
3487;SDS011;38546;48.170;11.724;2023-03-22T15:02:47;1.97;;;1.87;;
3487;SDS011;38546;48.170;11.724;2023-03-22T15:05:44;1.83;;;1.73;;
3487;SDS011;38546;48.170;11.724;2023-03-22T15:08:33;1.87;;;1.83;;
3487;SDS011;38546;48.170;11.724;2023-03-22T15:11:22;1.97;;;1.87;;
3487;SDS011;38546;48.170;11.724;2023-03-22T15:14:13;2.50;;;2.30;;
3487;SDS011;38546;48.170;11.724;2023-03-22T15:17:03;1.90;;;1.80;;
3487;SDS011;38546;48.170;11.724;2023-03-22T15:19:54;2.57;;;1.90;;
3487;SDS011;38546;48.170;11.724;2023-03-22T15:22:50;2.27;;;2.07;;
3487;SDS011;38546;48.170;11.724;2023-03-22T15:25:46;2.53;;;1.90;;
3487;SDS011;38546;48.170;11.724;2023-03-22T15:28:42;1.97;;;1.87;;
3487;SDS011;38546;48.170;11.724;2023-03-22T15:31:41;2.60;;;2.20;;
3487;SDS011;38546;48.170;11.724;2023-03-22T15:34:33;2.23;;;2.10;;
3487;SDS011;38546;48.170;11.724;2023-03-22T15:37:36;2.90;;;2.30;;
3487;SDS011;38546;48.170;11.724;2023-03-22T15:40:36;3.30;;;2.20;;
3487;SDS011;38546;48.170;11.724;2023-03-22T15:43:32;2.00;;;1.90;;
3487;SDS011;38546;48.170;11.724;2023-03-22T15:46:28;1.87;;;1.77;;
3487;SDS011;38546;48.170;11.724;2023-03-22T15:49:44;4.20;;;2.47;;
3487;SDS011;38546;48.170;11.724;2023-03-22T15:52:55;2.43;;;2.00;;
3487;SDS011;38546;48.170;11.724;2023-03-22T15:55:47;2.40;;;2.30;;
3487;SDS011;38546;48.170;11.724;2023-03-22T15:58:36;2.50;;;2.20;;
3487;SDS011;38546;48.170;11.724;2023-03-22T16:01:25;2.07;;;1.70;;
3487;SDS011;38546;48.170;11.724;2023-03-22T16:04:20;1.80;;;1.70;;
3487;SDS011;38546;48.170;11.724;2023-03-22T16:07:11;2.10;;;1.90;;
3487;SDS011;38546;48.170;11.724;2023-03-22T16:10:00;2.77;;;2.50;;
3487;SDS011;38546;48.170;11.724;2023-03-22T16:12:49;1.93;;;1.83;;
3487;SDS011;38546;48.170;11.724;2023-03-22T16:15:38;2.80;;;2.60;;
3487;SDS011;38546;48.170;11.724;2023-03-22T16:18:28;3.73;;;3.43;;
3487;SDS011;38546;48.170;11.724;2023-03-22T16:21:17;8.83;;;3.00;;
3487;SDS011;38546;48.170;11.724;2023-03-22T16:24:18;4.10;;;2.47;;
3487;SDS011;38546;48.170;11.724;2023-03-22T16:27:10;3.03;;;2.47;;
3487;SDS011;38546;48.170;11.724;2023-03-22T16:30:02;5.50;;;2.40;;
3487;SDS011;38546;48.170;11.724;2023-03-22T16:32:52;7.10;;;2.40;;
3487;SDS011;38546;48.170;11.724;2023-03-22T16:35:41;3.50;;;2.50;;
3487;SDS011;38546;48.170;11.724;2023-03-22T16:38:33;2.27;;;2.07;;
3487;SDS011;38546;48.170;11.724;2023-03-22T16:41:23;3.37;;;2.10;;
3487;SDS011;38546;48.170;11.724;2023-03-22T16:44:15;2.10;;;2.00;;
3487;SDS011;38546;48.170;11.724;2023-03-22T16:47:08;3.47;;;2.50;;
3487;SDS011;38546;48.170;11.724;2023-03-22T16:50:07;4.27;;;2.60;;
3487;SDS011;38546;48.170;11.724;2023-03-22T16:52:56;4.33;;;3.50;;
3487;SDS011;38546;48.170;11.724;2023-03-22T16:55:45;3.60;;;3.30;;
3487;SDS011;38546;48.170;11.724;2023-03-22T16:58:35;4.33;;;2.90;;
3487;SDS011;38546;48.170;11.724;2023-03-22T17:01:24;2.60;;;2.40;;
3487;SDS011;38546;48.170;11.724;2023-03-22T17:04:13;3.10;;;2.90;;
3487;SDS011;38546;48.170;11.724;2023-03-22T17:07:02;3.43;;;3.13;;
3487;SDS011;38546;48.170;11.724;2023-03-22T17:09:51;4.13;;;3.50;;
3487;SDS011;38546;48.170;11.724;2023-03-22T17:12:41;8.07;;;4.17;;
3487;SDS011;38546;48.170;11.724;2023-03-22T17:15:31;4.80;;;4.30;;
3487;SDS011;38546;48.170;11.724;2023-03-22T17:18:23;3.73;;;3.40;;
3487;SDS011;38546;48.170;11.724;2023-03-22T17:21:13;4.20;;;3.80;;
3487;SDS011;38546;48.170;11.724;2023-03-22T17:24:05;5.70;;;5.20;;
3487;SDS011;38546;48.170;11.724;2023-03-22T17:26:54;6.33;;;4.60;;
3487;SDS011;38546;48.170;11.724;2023-03-22T17:29:44;4.00;;;3.73;;
3487;SDS011;38546;48.170;11.724;2023-03-22T17:32:33;4.20;;;3.23;;
3487;SDS011;38546;48.170;11.724;2023-03-22T17:35:22;4.20;;;2.90;;
3487;SDS011;38546;48.170;11.724;2023-03-22T17:38:14;4.43;;;3.63;;
3487;SDS011;38546;48.170;11.724;2023-03-22T17:41:04;11.03;;;2.67;;
3487;SDS011;38546;48.170;11.724;2023-03-22T17:43:53;5.80;;;2.87;;
3487;SDS011;38546;48.170;11.724;2023-03-22T17:46:42;2.83;;;2.63;;
3487;SDS011;38546;48.170;11.724;2023-03-22T17:49:31;3.03;;;2.80;;
3487;SDS011;38546;48.170;11.724;2023-03-22T17:52:21;4.63;;;3.17;;
3487;SDS011;38546;48.170;11.724;2023-03-22T17:55:13;3.27;;;2.97;;
3487;SDS011;38546;48.170;11.724;2023-03-22T17:58:05;3.37;;;3.17;;
3487;SDS011;38546;48.170;11.724;2023-03-22T18:00:54;3.27;;;3.00;;
3487;SDS011;38546;48.170;11.724;2023-03-22T18:03:44;3.10;;;2.70;;
3487;SDS011;38546;48.170;11.724;2023-03-22T18:06:33;3.60;;;3.20;;
3487;SDS011;38546;48.170;11.724;2023-03-22T18:09:22;3.30;;;3.00;;
3487;SDS011;38546;48.170;11.724;2023-03-22T18:12:11;4.20;;;2.60;;
3487;SDS011;38546;48.170;11.724;2023-03-22T18:15:00;5.93;;;2.87;;
3487;SDS011;38546;48.170;11.724;2023-03-22T18:17:51;2.13;;;2.03;;
3487;SDS011;38546;48.170;11.724;2023-03-22T18:20:40;2.10;;;2.00;;
3487;SDS011;38546;48.170;11.724;2023-03-22T18:23:30;3.50;;;2.10;;
3487;SDS011;38546;48.170;11.724;2023-03-22T18:26:19;6.70;;;2.27;;
3487;SDS011;38546;48.170;11.724;2023-03-22T18:29:08;1.80;;;1.73;;
3487;SDS011;38546;48.170;11.724;2023-03-22T18:31:58;3.30;;;2.37;;
3487;SDS011;38546;48.170;11.724;2023-03-22T18:34:47;2.10;;;2.00;;
3487;SDS011;38546;48.170;11.724;2023-03-22T18:37:36;4.10;;;2.43;;